This is the latest recevied weather packets stored in our database for station/object K0QJ. If no packets are shown the sender has not sent any weather packets the latest 10 day(s).
| Time | Temp. | Humidity | Pressure | Rain* | Wind** | Luminosity | Snow |
|---|---|---|---|---|---|---|---|
| 1777872187 | 21.11° C | 44% | 1006 hPa | 0 mm | - | 0 W/m² | - |
| 1777871884 | 20.56° C | 46% | 1006.4 hPa | 0 mm | - | 0 W/m² | - |
| 1777871580 | 18.89° C | 53% | 1006.4 hPa | 0 mm | - | 0 W/m² | - |
| 1777871276 | 18.89° C | 56% | 1006.5 hPa | 0 mm | - | 0 W/m² | - |
| 1777870973 | 18.89° C | 59% | 1006.5 hPa | 0 mm | - | 0 W/m² | - |
| 1777870670 | 18.89° C | 57% | 1006.5 hPa | 0 mm | - | 0 W/m² | - |
| 1777870365 | 18.89° C | 58% | 1006.3 hPa | 0 mm | - | 0 W/m² | - |
| 1777870063 | 18.89° C | 56% | 1006.2 hPa | 0 mm | - | 0 W/m² | - |
| 1777869760 | 19.44° C | 56% | 1006.5 hPa | 0 mm | - | 0 W/m² | - |
| 1777869457 | 19.44° C | 56% | 1006.4 hPa | 0 mm | - | 0 W/m² | - |
| 1777869154 | 19.44° C | 56% | 1006.5 hPa | 0 mm | - | 0 W/m² | - |
| 1777868852 | 19.44° C | 54% | 1006.3 hPa | 0 mm | - | 0 W/m² | - |
| 1777868548 | 20° C | 54% | 1006.4 hPa | 0 mm | - | 0 W/m² | - |
| 1777868244 | 20° C | 53% | 1006.3 hPa | 0 mm | - | 0 W/m² | - |
| 1777867940 | 20° C | 52% | 1006.3 hPa | 0 mm | - | 0 W/m² | - |
| 1777867637 | 20° C | 53% | 1006 hPa | 0 mm | - | 0 W/m² | - |
| 1777867334 | 20° C | 52% | 1005.8 hPa | 0 mm | - | 0 W/m² | - |
| 1777867030 | 20° C | 53% | 1006.3 hPa | 0 mm | - | 0 W/m² | - |
| 1777866728 | 20° C | 55% | 1006.2 hPa | 0 mm | - | 0 W/m² | - |
| 1777866425 | 20° C | 54% | 1006.5 hPa | 0 mm | - | 0 W/m² | - |
| 1777866122 | 19.44° C | 57% | 1006.3 hPa | 0 mm | - | 0 W/m² | - |
| 1777865820 | 20° C | 57% | 1006.5 hPa | 0 mm | - | 0 W/m² | - |
| 1777865517 | 20° C | 57% | 1006.5 hPa | 0 mm | - | 0 W/m² | - |
| 1777865213 | 20° C | 56% | 1006.4 hPa | 0 mm | - | 0 W/m² | - |
| 1777864911 | 20° C | 55% | 1006.7 hPa | 0 mm | - | 0 W/m² | - |
* Rain latest hour (hover to see other rain measurements)
** Current wind speed in m/s (hover to see current wind gust speed)